Time;durP1;ratioP1;P1;durP2;ratioP2;P2;SDS_P1;SDS_P2;PMS_P1;PMS_P2;Temp;Humidity;BMP_temperature;BMP_pressure;BME280_temperature;BME280_humidity;BME280_pressure;Samples;Min_cycle;Max_cycle;Signal;HPM_P1;HPM_P2
2021/04/12 05:32:02;;;;;;;12.45;5.93;;;;;;;;;;5610404;23;20084;31
2021/04/12 05:34:46;;;;;;;11.30;5.88;;;;;;;;;;4818484;29;20056;-72
2021/04/12 05:37:31;;;;;;;14.25;5.10;;;;;;;;;;4819827;29;20038;-64
2021/04/12 05:40:00;;;;;;;10.40;4.88;;;;;;;;;;4822056;29;20099;-72
2021/04/12 05:42:39;;;;;;;10.75;4.70;;;;;;;;;;4821668;29;20035;-71
2021/04/12 05:45:08;;;;;;;13.45;5.70;;;;;;;;;;4821249;29;20063;-72
2021/04/12 05:47:37;;;;;;;11.00;5.53;;;;;;;;;;4820886;29;20071;-66
2021/04/12 05:50:17;;;;;;;11.82;5.47;;;;;;;;;;4821519;29;20038;-69
2021/04/12 05:52:43;;;;;;;11.35;5.35;;;;;;;;;;4821706;29;20045;-65
2021/04/12 05:55:13;;;;;;;16.15;5.22;;;;;;;;;;4821213;29;20486;-61
2021/04/12 05:57:51;;;;;;;12.23;5.00;;;;;;;;;;4816889;29;20046;-63
2021/04/12 06:00:17;;;;;;;11.93;5.38;;;;;;;;;;4819061;29;20453;-64
2021/04/12 06:02:52;;;;;;;10.13;4.65;;;;;;;;;;4819113;29;20790;-65
2021/04/12 06:05:51;;;;;;;9.88;5.00;;;;;;;;;;4819912;29;20038;-68
2021/04/12 06:08:19;;;;;;;9.98;4.75;;;;;;;;;;4772460;30;20043;-68
2021/04/12 06:10:53;;;;;;;9.73;4.68;;;;;;;;;;4782425;29;20120;-69
2021/04/12 06:13:38;;;;;;;11.15;4.72;;;;;;;;;;4780918;29;20038;-61
2021/04/12 06:16:22;;;;;;;8.15;4.47;;;;;;;;;;4782917;29;20045;-69
2021/04/12 06:18:51;;;;;;;9.38;4.50;;;;;;;;;;4787635;29;20554;-60
2021/04/12 06:21:20;;;;;;;10.75;5.05;;;;;;;;;;4765592;30;20195;-66
2021/04/12 06:23:55;;;;;;;9.88;4.72;;;;;;;;;;4778893;30;20067;-63
2021/04/12 06:26:27;;;;;;;9.07;4.80;;;;;;;;;;4779036;30;20077;-62
2021/04/12 06:29:12;;;;;;;9.88;4.88;;;;;;;;;;4781325;30;20559;-69
2021/04/12 06:31:57;;;;;;;8.73;4.57;;;;;;;;;;4780234;30;20196;-70
2021/04/12 06:34:28;;;;;;;9.93;4.60;;;;;;;;;;4762799;30;20369;-70
2021/04/12 06:37:07;;;;;;;15.20;6.28;;;;;;;;;;4763152;30;20039;-67
2021/04/12 06:39:33;;;;;;;10.82;5.50;;;;;;;;;;4748108;30;20051;-70
2021/04/12 06:42:19;;;;;;;10.90;5.03;;;;;;;;;;4763305;30;20035;-68
2021/04/12 06:45:00;;;;;;;11.23;4.55;;;;;;;;;;4772541;30;20527;-71
2021/04/12 06:47:44;;;;;;;10.35;5.03;;;;;;;;;;4784491;30;20043;-70
2021/04/12 06:50:29;;;;;;;10.32;4.70;;;;;;;;;;4783897;30;20061;-70
2021/04/12 06:53:07;;;;;;;10.73;4.82;;;;;;;;;;4794565;29;20463;-72
2021/04/12 06:55:44;;;;;;;10.65;4.90;;;;;;;;;;4801554;29;20492;-71
2021/04/12 06:58:29;;;;;;;8.93;4.78;;;;;;;;;;4801167;29;20042;-66
2021/04/12 07:01:14;;;;;;;16.80;6.78;;;;;;;;;;4800850;29;20081;-67
2021/04/12 07:03:58;;;;;;;11.80;5.07;;;;;;;;;;4800696;29;20534;-69
2021/04/12 07:06:42;;;;;;;8.38;5.38;;;;;;;;;;4801218;29;20065;-71
2021/04/12 07:09:08;;;;;;;9.57;5.32;;;;;;;;;;4799880;29;20034;-68
2021/04/12 07:11:34;;;;;;;12.57;5.47;;;;;;;;;;4801332;29;20042;-66
2021/04/12 07:14:19;;;;;;;9.95;5.10;;;;;;;;;;4801383;29;20099;-69
2021/04/12 07:16:51;;;;;;;12.35;5.18;;;;;;;;;;4799057;29;20050;-68
2021/04/12 07:19:29;;;;;;;13.35;5.68;;;;;;;;;;4799351;29;20070;-68
2021/04/12 07:22:14;;;;;;;14.00;5.53;;;;;;;;;;4800993;29;20573;-64
2021/04/12 07:25:03;;;;;;;13.63;6.43;;;;;;;;;;4799247;29;20031;-64
2021/04/12 07:27:48;;;;;;;12.43;4.97;;;;;;;;;;4799908;29;20092;-62
2021/04/12 07:30:32;;;;;;;10.48;4.40;;;;;;;;;;4801252;29;20089;-69
2021/04/12 07:33:18;;;;;;;11.07;4.57;;;;;;;;;;4801812;29;20126;-65
2021/04/12 07:36:03;;;;;;;12.93;4.78;;;;;;;;;;4801052;29;20047;-64
2021/04/12 07:38:47;;;;;;;10.07;4.95;;;;;;;;;;4801638;29;20438;-68
2021/04/12 07:41:32;;;;;;;11.07;4.30;;;;;;;;;;4802071;29;20096;-69
2021/04/12 07:44:17;;;;;;;12.10;4.68;;;;;;;;;;4801413;29;20038;-68
2021/04/12 07:46:43;;;;;;;10.52;4.80;;;;;;;;;;4801267;29;20051;-67
2021/04/12 07:49:27;;;;;;;10.18;5.32;;;;;;;;;;4801231;29;20523;-68
2021/04/12 07:52:05;;;;;;;9.43;4.57;;;;;;;;;;4803804;29;20035;-67
2021/04/12 07:54:46;;;;;;;11.85;5.00;;;;;;;;;;4795302;29;20034;-67
2021/04/12 07:57:42;;;;;;;13.80;4.70;;;;;;;;;;4804418;29;20043;-66
2021/04/12 08:00:26;;;;;;;10.27;4.68;;;;;;;;;;4803989;29;20089;-65
2021/04/12 08:02:55;;;;;;;8.38;4.22;;;;;;;;;;4804070;29;20050;-68
2021/04/12 08:05:33;;;;;;;10.48;4.50;;;;;;;;;;4804557;29;20168;-61
2021/04/12 08:08:25;;;;;;;8.15;4.47;;;;;;;;;;4804561;29;20987;-65
2021/04/12 08:11:14;;;;;;;8.93;4.38;;;;;;;;;;4804360;29;20034;-63
2021/04/12 08:13:43;;;;;;;11.55;4.38;;;;;;;;;;4762047;30;20074;-64
2021/04/12 08:16:12;;;;;;;12.38;4.95;;;;;;;;;;4765382;30;20043;-60
2021/04/12 08:19:04;;;;;;;8.95;4.00;;;;;;;;;;4764576;30;20050;-65
2021/04/12 08:21:36;;;;;;;7.72;3.95;;;;;;;;;;4716165;30;20048;-65
2021/04/12 08:24:08;;;;;;;11.25;4.68;;;;;;;;;;4711866;30;20597;-68
2021/04/12 08:26:43;;;;;;;9.75;4.32;;;;;;;;;;4711142;30;20056;-68
2021/04/12 08:29:20;;;;;;;12.75;4.47;;;;;;;;;;4710855;30;20033;-62
2021/04/12 08:31:58;;;;;;;8.88;3.97;;;;;;;;;;4710912;30;20056;-67
2021/04/12 08:34:24;;;;;;;7.05;3.58;;;;;;;;;;4711796;30;20451;-67
2021/04/12 08:37:09;;;;;;;6.97;3.40;;;;;;;;;;4712654;30;20472;-64
2021/04/12 08:39:44;;;;;;;7.72;3.38;;;;;;;;;;4712841;30;20106;-67
2021/04/12 08:42:22;;;;;;;9.05;4.00;;;;;;;;;;4712355;30;20118;-70
2021/04/12 08:45:06;;;;;;;9.52;3.63;;;;;;;;;;4712011;30;20068;-68
2021/04/12 08:47:41;;;;;;;12.13;4.50;;;;;;;;;;4711628;30;20662;-68
2021/04/12 08:50:16;;;;;;;12.25;4.65;;;;;;;;;;4720035;30;20041;-60
2021/04/12 08:52:48;;;;;;;7.40;3.67;;;;;;;;;;4746113;30;20064;-66
2021/04/12 08:55:29;;;;;;;12.23;4.35;;;;;;;;;;4747639;30;20536;-60
2021/04/12 08:58:14;;;;;;;11.45;4.10;;;;;;;;;;4765747;29;20118;-65
2021/04/12 09:00:56;;;;;;;8.75;3.47;;;;;;;;;;4801014;29;20035;-68
2021/04/12 09:03:31;;;;;;;7.45;3.70;;;;;;;;;;4803184;29;20054;-66
2021/04/12 09:06:09;;;;;;;8.85;3.80;;;;;;;;;;4803171;29;20091;-61
2021/04/12 09:08:41;;;;;;;8.50;3.55;;;;;;;;;;4803340;29;20027;-67
2021/04/12 09:11:15;;;;;;;7.80;3.20;;;;;;;;;;4803141;29;20500;-65
2021/04/12 09:13:51;;;;;;;9.40;3.00;;;;;;;;;;4802762;29;20034;-67
2021/04/12 09:16:18;;;;;;;8.32;3.38;;;;;;;;;;4788760;29;20039;-61
2021/04/12 09:19:00;;;;;;;8.93;4.22;;;;;;;;;;4800602;29;20030;-60
2021/04/12 09:21:45;;;;;;;13.35;4.00;;;;;;;;;;4803281;29;20023;-64
2021/04/12 09:24:20;;;;;;;9.68;4.40;;;;;;;;;;4803728;29;20172;-63
2021/04/12 09:27:04;;;;;;;9.77;4.53;;;;;;;;;;4800405;29;20071;-65
2021/04/12 09:29:39;;;;;;;12.20;4.45;;;;;;;;;;4802294;29;20387;-64
2021/04/12 09:32:05;;;;;;;8.93;3.85;;;;;;;;;;4802608;29;20050;-69
2021/04/12 09:34:50;;;;;;;8.20;3.65;;;;;;;;;;4786837;29;20085;-68
2021/04/12 09:37:46;;;;;;;10.45;2.83;;;;;;;;;;4786608;29;20379;-67
2021/04/12 09:40:34;;;;;;;12.75;3.00;;;;;;;;;;4802459;29;20106;-61
2021/04/12 09:43:23;;;;;;;9.05;3.13;;;;;;;;;;4811248;29;20576;-69
2021/04/12 09:45:52;;;;;;;8.13;2.78;;;;;;;;;;4820003;29;20045;-68
2021/04/12 09:48:37;;;;;;;9.48;3.55;;;;;;;;;;4813455;29;20049;-67
2021/04/12 09:51:30;;;;;;;8.02;3.53;;;;;;;;;;4797496;29;20062;-67
2021/04/12 09:54:34;;;;;;;9.70;3.78;;;;;;;;;;4803493;29;20043;-67
2021/04/12 09:57:21;;;;;;;12.90;3.92;;;;;;;;;;4712954;30;20041;-69
2021/04/12 10:00:03;;;;;;;9.77;3.97;;;;;;;;;;4677247;30;20050;-63
2021/04/12 10:02:31;;;;;;;12.32;4.03;;;;;;;;;;4683232;30;20057;-67
2021/04/12 10:05:10;;;;;;;10.07;4.00;;;;;;;;;;4676475;30;20136;-66
2021/04/12 10:07:55;;;;;;;11.25;4.32;;;;;;;;;;4679291;30;20104;-68
2021/04/12 10:10:23;;;;;;;15.15;3.63;;;;;;;;;;4694354;30;20084;-67
2021/04/12 10:12:58;;;;;;;10.90;3.50;;;;;;;;;;4694734;30;20177;-66
2021/04/12 10:15:27;;;;;;;11.70;3.80;;;;;;;;;;4689031;30;20138;-69
2021/04/12 10:18:14;;;;;;;17.15;3.70;;;;;;;;;;4693553;30;20045;-64
2021/04/12 10:20:45;;;;;;;8.38;3.70;;;;;;;;;;4689492;30;20121;-66
2021/04/12 10:23:32;;;;;;;8.10;3.00;;;;;;;;;;4693503;30;20634;-66
2021/04/12 10:26:03;;;;;;;9.60;3.80;;;;;;;;;;4689346;30;20275;-66
2021/04/12 10:28:42;;;;;;;18.07;3.43;;;;;;;;;;4749580;30;20048;-65
2021/04/12 10:31:18;;;;;;;11.18;4.00;;;;;;;;;;4758922;30;20040;-62
2021/04/12 10:33:44;;;;;;;7.47;3.08;;;;;;;;;;4763387;30;20066;-65
2021/04/12 10:36:29;;;;;;;9.80;3.28;;;;;;;;;;4768371;29;20042;-63
2021/04/12 10:39:01;;;;;;;13.15;3.38;;;;;;;;;;4800452;29;20039;-62
2021/04/12 10:41:27;;;;;;;10.17;3.20;;;;;;;;;;4801199;29;20035;-65
2021/04/12 10:43:56;;;;;;;9.05;2.90;;;;;;;;;;4802266;29;20070;-67
2021/04/12 10:46:31;;;;;;;8.05;3.33;;;;;;;;;;4803086;29;20108;-64
2021/04/12 10:49:01;;;;;;;9.25;3.40;;;;;;;;;;4803119;29;20035;-67
2021/04/12 10:51:46;;;;;;;10.10;3.65;;;;;;;;;;4803157;29;20034;-67
2021/04/12 10:54:32;;;;;;;9.38;3.65;;;;;;;;;;4802831;29;20034;-67
2021/04/12 10:56:58;;;;;;;16.63;4.55;;;;;;;;;;4803230;29;20145;-67
2021/04/12 10:59:42;;;;;;;9.65;3.20;;;;;;;;;;4802688;29;20106;-67
2021/04/12 11:02:08;;;;;;;14.45;3.17;;;;;;;;;;4801904;29;20034;-66
2021/04/12 11:04:55;;;;;;;15.23;3.17;;;;;;;;;;4802565;29;20047;-64
2021/04/12 11:07:37;;;;;;;13.07;3.08;;;;;;;;;;4802786;29;20035;-67
2021/04/12 11:10:21;;;;;;;9.02;2.72;;;;;;;;;;4802669;29;20175;-65
2021/04/12 11:12:54;;;;;;;14.52;3.70;;;;;;;;;;4801586;29;20400;-65
2021/04/12 11:15:23;;;;;;;12.50;3.15;;;;;;;;;;4800194;29;20360;-67
2021/04/12 11:17:55;;;;;;;12.75;3.30;;;;;;;;;;4802356;29;20030;-66
2021/04/12 11:20:24;;;;;;;11.75;3.15;;;;;;;;;;4802163;29;20553;-64
2021/04/12 11:22:57;;;;;;;13.00;3.13;;;;;;;;;;4800577;29;20051;-63
2021/04/12 11:25:44;;;;;;;11.25;3.92;;;;;;;;;;4801689;29;20406;-64
2021/04/12 11:28:14;;;;;;;10.48;3.08;;;;;;;;;;4715308;30;20089;-65
2021/04/12 11:30:58;;;;;;;13.25;3.38;;;;;;;;;;4714490;30;20081;-64
2021/04/12 11:33:33;;;;;;;12.27;2.85;;;;;;;;;;4714731;30;20433;-62
2021/04/12 11:36:08;;;;;;;15.38;3.13;;;;;;;;;;4715065;30;20088;-63
2021/04/12 11:38:36;;;;;;;13.75;3.03;;;;;;;;;;4714273;30;20048;-65
2021/04/12 11:41:02;;;;;;;13.73;3.42;;;;;;;;;;4715868;30;20037;-64
2021/04/12 11:43:30;;;;;;;11.20;2.92;;;;;;;;;;4713591;30;20049;-67
2021/04/12 11:46:15;;;;;;;13.13;3.00;;;;;;;;;;4714237;30;20037;-63
2021/04/12 11:48:52;;;;;;;11.50;3.13;;;;;;;;;;4713498;30;20048;-65
2021/04/12 11:51:24;;;;;;;9.52;3.10;;;;;;;;;;4716193;30;20060;-64
2021/04/12 11:53:50;;;;;;;12.32;2.95;;;;;;;;;;4714392;30;20577;-62
2021/04/12 11:56:30;;;;;;;11.23;3.65;;;;;;;;;;4711709;30;20045;-63
2021/04/12 11:58:56;;;;;;;11.93;3.28;;;;;;;;;;4711755;30;20048;-63
2021/04/12 12:01:37;;;;;;;13.10;3.53;;;;;;;;;;4712921;30;20116;-64
2021/04/12 12:04:09;;;;;;;12.90;3.55;;;;;;;;;;4710882;30;20053;-63
2021/04/12 12:06:49;;;;;;;18.58;3.47;;;;;;;;;;4800390;29;20050;-63
2021/04/12 12:09:33;;;;;;;13.38;3.78;;;;;;;;;;4802158;29;20103;-63
2021/04/12 12:12:14;;;;;;;12.18;3.13;;;;;;;;;;4804642;29;20084;-63
2021/04/12 12:14:50;;;;;;;9.88;3.45;;;;;;;;;;4804393;29;20437;-63
2021/04/12 12:17:20;;;;;;;11.00;3.60;;;;;;;;;;4803743;29;20035;-66
2021/04/12 12:19:58;;;;;;;11.75;3.50;;;;;;;;;;4804403;29;20049;-64
2021/04/12 12:22:43;;;;;;;16.25;3.85;;;;;;;;;;4801763;29;20526;-66
2021/04/12 12:25:21;;;;;;;14.98;3.58;;;;;;;;;;4804157;29;20049;-63
2021/04/12 12:28:09;;;;;;;10.18;3.28;;;;;;;;;;4803647;29;20038;-64
2021/04/12 12:30:58;;;;;;;11.15;3.35;;;;;;;;;;4803504;29;20035;-64
2021/04/12 12:33:27;;;;;;;10.38;2.88;;;;;;;;;;4801480;29;20043;-68
2021/04/12 12:35:53;;;;;;;10.50;3.22;;;;;;;;;;4802847;29;20050;-64
2021/04/12 12:38:42;;;;;;;12.30;2.90;;;;;;;;;;4803679;29;20082;-65
2021/04/12 12:41:15;;;;;;;12.73;2.90;;;;;;;;;;4763112;30;20393;-66
2021/04/12 12:43:42;;;;;;;16.80;3.42;;;;;;;;;;4763155;30;20165;-69
2021/04/12 12:46:20;;;;;;;11.32;3.15;;;;;;;;;;4764000;30;20051;-69
2021/04/12 12:48:48;;;;;;;12.63;4.00;;;;;;;;;;4763596;30;20504;-69
2021/04/12 12:51:36;;;;;;;13.65;3.67;;;;;;;;;;4765312;30;20484;-68
2021/04/12 12:54:07;;;;;;;9.88;3.38;;;;;;;;;;4764492;30;20038;-65
2021/04/12 12:56:35;;;;;;;12.07;3.50;;;;;;;;;;4765167;30;20035;-68
2021/04/12 12:59:04;;;;;;;14.40;4.07;;;;;;;;;;4765238;30;20559;-69
2021/04/12 13:01:35;;;;;;;12.65;2.88;;;;;;;;;;4765140;30;20118;-66
2021/04/12 13:04:12;;;;;;;11.52;3.42;;;;;;;;;;4763878;30;20056;-67
2021/04/12 13:06:39;;;;;;;14.27;3.53;;;;;;;;;;4763461;30;20040;-66
2021/04/12 13:09:13;;;;;;;9.48;2.90;;;;;;;;;;4765403;30;20066;-68
2021/04/12 13:11:42;;;;;;;12.55;3.00;;;;;;;;;;4765294;30;20848;-63
2021/04/12 13:14:27;;;;;;;13.98;3.22;;;;;;;;;;4764670;30;20032;-65
2021/04/12 13:16:53;;;;;;;11.90;2.85;;;;;;;;;;4762545;30;20031;-65
2021/04/12 13:19:20;;;;;;;13.77;4.13;;;;;;;;;;4802102;29;20592;-69
2021/04/12 13:21:51;;;;;;;12.65;3.28;;;;;;;;;;4803019;29;20031;-66
2021/04/12 13:24:26;;;;;;;12.13;3.37;;;;;;;;;;4803299;29;20396;-64
2021/04/12 13:26:55;;;;;;;14.63;3.58;;;;;;;;;;4801367;29;20031;-64
2021/04/12 13:29:23;;;;;;;12.52;3.13;;;;;;;;;;4803738;29;20066;-67
2021/04/12 13:31:54;;;;;;;8.40;2.92;;;;;;;;;;4803279;29;20035;-68
2021/04/12 13:34:23;;;;;;;15.55;3.97;;;;;;;;;;4803782;29;20500;-71
2021/04/12 13:36:54;;;;;;;9.10;3.30;;;;;;;;;;4803490;29;20031;-70
2021/04/12 13:39:29;;;;;;;12.85;3.58;;;;;;;;;;4803758;29;20563;-65
2021/04/12 13:41:55;;;;;;;14.38;3.47;;;;;;;;;;4786008;29;20353;-67
2021/04/12 13:44:23;;;;;;;12.48;3.30;;;;;;;;;;4802188;29;20421;-69
2021/04/12 13:46:56;;;;;;;12.90;3.08;;;;;;;;;;4796363;29;20091;-69
2021/04/12 13:49:26;;;;;;;11.88;3.13;;;;;;;;;;4802614;29;20065;-68
2021/04/12 13:52:04;;;;;;;11.35;3.70;;;;;;;;;;4803681;29;20031;-65
2021/04/12 13:54:31;;;;;;;10.95;3.30;;;;;;;;;;4803324;29;20031;-69
2021/04/12 13:56:57;;;;;;;10.27;3.08;;;;;;;;;;4803076;29;20031;-65
2021/04/12 13:59:25;;;;;;;10.27;2.97;;;;;;;;;;4802475;29;20027;-66
2021/04/12 14:01:54;;;;;;;9.88;3.55;;;;;;;;;;4802533;29;20046;-67
2021/04/12 14:04:22;;;;;;;14.00;2.88;;;;;;;;;;4801919;29;20095;-68
2021/04/12 14:07:07;;;;;;;10.13;2.97;;;;;;;;;;4798452;29;20083;-61
2021/04/12 14:09:39;;;;;;;10.95;2.88;;;;;;;;;;4802189;29;20564;-61
2021/04/12 14:12:16;;;;;;;12.20;3.38;;;;;;;;;;4803226;29;20038;-70
2021/04/12 14:14:48;;;;;;;13.90;3.47;;;;;;;;;;4803205;29;20087;-60
2021/04/12 14:17:20;;;;;;;15.93;3.50;;;;;;;;;;4803420;29;20063;-63
2021/04/12 14:19:47;;;;;;;;;;;;;;;;;;4803760;29;20031;-65
2021/04/12 14:22:19;;;;;;;13.52;3.25;;;;;;;;;;4803249;29;19913;-62
2021/04/12 14:24:45;;;;;;;;;;;;;;;;;;4803650;29;20111;-66
2021/04/12 14:27:15;;;;;;;15.70;3.55;;;;;;;;;;4803265;29;20370;-67
2021/04/12 14:29:44;;;;;;;12.02;3.63;;;;;;;;;;4803159;29;20041;-66
2021/04/12 14:32:14;;;;;;;13.57;3.55;;;;;;;;;;4796932;29;20116;-64
2021/04/12 14:34:42;;;;;;;14.73;3.40;;;;;;;;;;4801410;29;20088;-68
2021/04/12 14:37:11;;;;;;;16.30;4.20;;;;;;;;;;4802723;29;20537;-66
2021/04/12 14:39:38;;;;;;;14.10;3.47;;;;;;;;;;4802964;29;20031;-67
2021/04/12 14:42:07;;;;;;;18.42;4.75;;;;;;;;;;4798571;29;20038;-66
2021/04/12 14:44:42;;;;;;;12.70;3.90;;;;;;;;;;4798913;29;20076;-63
2021/04/12 14:47:20;;;;;;;16.52;4.00;;;;;;;;;;4798869;29;20391;-62
2021/04/12 14:49:47;;;;;;;19.80;4.38;;;;;;;;;;4796704;29;20573;-68
2021/04/12 14:52:20;;;;;;;16.67;4.22;;;;;;;;;;4796113;29;20088;-68
2021/04/12 14:54:46;;;;;;;11.60;3.55;;;;;;;;;;4802252;29;20031;-65
2021/04/12 14:57:18;;;;;;;14.85;3.53;;;;;;;;;;4798094;29;20037;-66
2021/04/12 14:59:47;;;;;;;9.98;3.42;;;;;;;;;;4800713;29;20095;-65
2021/04/12 15:02:32;;;;;;;14.40;3.60;;;;;;;;;;4798036;29;20031;-68
2021/04/12 15:05:00;;;;;;;12.45;3.58;;;;;;;;;;4796524;29;20043;-64
2021/04/12 15:07:35;;;;;;;14.73;3.85;;;;;;;;;;4800683;29;20027;-67
2021/04/12 15:10:01;;;;;;;16.27;4.18;;;;;;;;;;4799748;29;20485;-66
2021/04/12 15:12:28;;;;;;;13.82;3.95;;;;;;;;;;4803347;29;20050;-67
2021/04/12 15:15:14;;;;;;;12.95;3.78;;;;;;;;;;4799595;29;20031;-69
2021/04/12 15:17:41;;;;;;;16.23;3.85;;;;;;;;;;4804488;29;20424;-67
2021/04/12 15:20:07;;;;;;;12.98;3.67;;;;;;;;;;4793136;29;20484;-67
2021/04/12 15:22:40;;;;;;;10.70;3.70;;;;;;;;;;4800500;29;20042;-64
2021/04/12 15:25:08;;;;;;;11.30;4.00;;;;;;;;;;4791641;29;20060;-67
2021/04/12 15:27:34;;;;;;;18.83;3.80;;;;;;;;;;4796349;29;20495;-67
2021/04/12 15:30:07;;;;;;;13.15;4.20;;;;;;;;;;4803709;29;20095;-68
2021/04/12 15:32:35;;;;;;;19.30;4.82;;;;;;;;;;4794230;29;20415;-70
2021/04/12 15:35:18;;;;;;;15.93;4.18;;;;;;;;;;4805422;29;20041;-69
2021/04/12 15:37:56;;;;;;;16.52;4.85;;;;;;;;;;4802718;29;20054;-67
2021/04/12 15:40:22;;;;;;;11.00;4.40;;;;;;;;;;4804951;29;20031;-63
2021/04/12 15:42:58;;;;;;;17.17;4.57;;;;;;;;;;4803739;29;20035;-70
2021/04/12 15:45:34;;;;;;;16.10;4.30;;;;;;;;;;4804161;29;20043;-70
2021/04/12 15:48:01;;;;;;;13.57;4.18;;;;;;;;;;4803707;29;20026;-69
2021/04/12 15:50:32;;;;;;;13.25;4.70;;;;;;;;;;4803375;29;20511;-68
2021/04/12 15:53:03;;;;;;;16.00;4.50;;;;;;;;;;4803765;29;20487;-71
2021/04/12 15:55:41;;;;;;;10.50;4.13;;;;;;;;;;4801529;29;20027;-70
2021/04/12 15:58:12;;;;;;;17.48;4.35;;;;;;;;;;4802894;29;20035;-69
2021/04/12 16:00:41;;;;;;;15.27;4.20;;;;;;;;;;4801987;29;20027;-70
2021/04/12 16:03:15;;;;;;;13.00;4.50;;;;;;;;;;4796827;29;20034;-70
2021/04/12 16:05:44;;;;;;;13.60;4.63;;;;;;;;;;4805061;29;20042;-66
2021/04/12 16:08:13;;;;;;;12.07;4.18;;;;;;;;;;4804854;29;20433;-65
2021/04/12 16:10:45;;;;;;;14.85;4.15;;;;;;;;;;4804674;29;20114;-65
2021/04/12 16:13:24;;;;;;;13.77;5.35;;;;;;;;;;4805516;29;20035;-69
2021/04/12 16:16:03;;;;;;;17.10;5.32;;;;;;;;;;4804230;29;20031;-66
2021/04/12 16:18:33;;;;;;;19.63;5.90;;;;;;;;;;4801604;29;20731;-63
2021/04/12 16:21:29;;;;;;;19.60;6.25;;;;;;;;;;4803572;29;20065;-70
2021/04/12 16:24:16;;;;;;;19.35;5.90;;;;;;;;;;4802111;29;20042;-64
2021/04/12 16:26:54;;;;;;;19.08;6.85;;;;;;;;;;4803776;29;20033;-69
2021/04/12 16:29:23;;;;;;;16.80;6.53;;;;;;;;;;4803515;29;20023;-69
2021/04/12 16:31:50;;;;;;;24.33;6.40;;;;;;;;;;4799827;29;20043;-69
2021/04/12 16:34:19;;;;;;;14.60;5.82;;;;;;;;;;4790301;29;20062;-68
2021/04/12 16:36:48;;;;;;;18.17;6.63;;;;;;;;;;4790603;29;20102;-69
2021/04/12 16:39:21;;;;;;;20.98;6.80;;;;;;;;;;4793173;29;20483;-67
2021/04/12 16:42:01;;;;;;;16.35;6.53;;;;;;;;;;4790909;29;20055;-66
2021/04/12 16:44:37;;;;;;;22.00;6.50;;;;;;;;;;4790200;29;20074;-65
2021/04/12 16:47:06;;;;;;;19.48;6.40;;;;;;;;;;4792997;29;20512;-69
2021/04/12 16:49:36;;;;;;;20.38;6.72;;;;;;;;;;4792667;29;20909;-67
2021/04/12 16:52:02;;;;;;;20.88;6.55;;;;;;;;;;4794448;29;20080;-61
2021/04/12 16:54:38;;;;;;;19.55;6.88;;;;;;;;;;4792787;29;20110;-64
2021/04/12 16:57:07;;;;;;;23.15;7.38;;;;;;;;;;4793674;29;20455;-67
2021/04/12 16:59:41;;;;;;;20.83;7.32;;;;;;;;;;4791644;29;20433;-67
2021/04/12 17:02:18;;;;;;;19.08;7.10;;;;;;;;;;4786840;29;20424;-68
2021/04/12 17:04:53;;;;;;;16.63;7.47;;;;;;;;;;4789502;29;20043;-70
2021/04/12 17:07:30;;;;;;;27.38;7.65;;;;;;;;;;4790516;29;20392;-67
2021/04/12 17:10:18;;;;;;;18.42;7.50;;;;;;;;;;4789978;29;20111;-69
2021/04/12 17:12:47;;;;;;;27.92;8.30;;;;;;;;;;4790883;29;20031;-66
2021/04/12 17:15:23;;;;;;;21.13;8.77;;;;;;;;;;4789305;29;20388;-70
2021/04/12 17:17:57;;;;;;;20.95;8.43;;;;;;;;;;4786155;30;20077;-68
2021/04/12 17:20:24;;;;;;;28.00;8.45;;;;;;;;;;4784672;29;20043;-67
2021/04/12 17:22:56;;;;;;;25.80;8.65;;;;;;;;;;4786124;29;20043;-65
2021/04/12 17:25:22;;;;;;;;;;;;;;;;;;4801105;29;20047;-62
2021/04/12 17:28:08;;;;;;;25.05;9.40;;;;;;;;;;4803742;29;20391;-64
2021/04/12 17:30:41;;;;;;;30.10;10.88;;;;;;;;;;4781963;30;20365;-69
2021/04/12 17:33:13;;;;;;;22.05;9.68;;;;;;;;;;4792404;29;20126;-63
2021/04/12 17:35:43;;;;;;;25.63;9.57;;;;;;;;;;4802673;29;20106;-61
2021/04/12 17:38:09;;;;;;;26.33;9.77;;;;;;;;;;4802545;29;20106;-63
2021/04/12 17:40:37;;;;;;;25.35;10.02;;;;;;;;;;4801987;29;20554;-63
2021/04/12 17:43:09;;;;;;;25.60;9.25;;;;;;;;;;4801545;29;20047;-61
2021/04/12 17:45:45;;;;;;;31.63;10.40;;;;;;;;;;4799943;29;20026;-69
2021/04/12 17:48:19;;;;;;;25.83;9.98;;;;;;;;;;4802214;29;20322;-65
2021/04/12 17:50:46;;;;;;;26.38;9.90;;;;;;;;;;4803105;29;20530;-67
2021/04/12 17:53:19;;;;;;;22.08;9.57;;;;;;;;;;4803269;29;20023;-68
2021/04/12 17:55:46;;;;;;;30.65;10.57;;;;;;;;;;4800845;29;20708;-68
2021/04/12 17:58:15;;;;;;;26.15;9.75;;;;;;;;;;4802849;29;20038;-65
2021/04/12 18:00:48;;;;;;;23.02;10.40;;;;;;;;;;4803028;29;20114;-68
2021/04/12 18:03:17;;;;;;;25.90;11.02;;;;;;;;;;4802609;29;20438;-68
2021/04/12 18:06:04;;;;;;;20.67;9.77;;;;;;;;;;4803022;29;20500;-66
2021/04/12 18:08:33;;;;;;;28.45;11.25;;;;;;;;;;4803021;29;20027;-65
2021/04/12 18:11:28;;;;;;;27.08;11.60;;;;;;;;;;4802673;29;20069;-68
2021/04/12 18:13:57;;;;;;;29.52;11.07;;;;;;;;;;4709936;30;20510;-67
2021/04/12 18:16:30;;;;;;;29.73;10.32;;;;;;;;;;4711559;30;20091;-65
2021/04/12 18:18:58;;;;;;;31.02;10.80;;;;;;;;;;4711008;30;20063;-68
2021/04/12 18:21:46;;;;;;;27.20;10.52;;;;;;;;;;4711217;30;20068;-66
2021/04/12 18:24:15;;;;;;;33.67;10.73;;;;;;;;;;4710210;30;20053;-68
2021/04/12 18:26:44;;;;;;;26.42;10.73;;;;;;;;;;4712222;30;20041;-68
2021/04/12 18:29:15;;;;;;;27.60;10.13;;;;;;;;;;4709981;30;20037;-68
2021/04/12 18:32:07;;;;;;;32.65;10.55;;;;;;;;;;4708723;30;20041;-66
2021/04/12 18:34:33;;;;;;;31.42;11.50;;;;;;;;;;4687329;30;20498;-66
2021/04/12 18:37:04;;;;;;;30.83;11.00;;;;;;;;;;4695667;30;20039;-67
2021/04/12 18:39:38;;;;;;;31.58;14.13;;;;;;;;;;4702932;30;20045;-67
2021/04/12 18:42:08;;;;;;;37.63;15.82;;;;;;;;;;4710021;30;20141;-66
2021/04/12 18:44:37;;;;;;;37.78;14.80;;;;;;;;;;4710496;30;20057;-67
2021/04/12 18:47:22;;;;;;;33.58;13.65;;;;;;;;;;4709053;30;20088;-69
2021/04/12 18:49:50;;;;;;;38.35;14.38;;;;;;;;;;4736453;29;20445;-67
2021/04/12 18:52:25;;;;;;;36.08;13.43;;;;;;;;;;4801406;29;20040;-67
2021/04/12 18:55:08;;;;;;;28.48;13.65;;;;;;;;;;4801249;29;20041;-68
2021/04/12 18:57:36;;;;;;;34.72;14.38;;;;;;;;;;4800778;29;20037;-67
2021/04/12 19:00:15;;;;;;;28.95;11.88;;;;;;;;;;4800881;29;20022;-68
2021/04/12 19:02:47;;;;;;;31.38;13.60;;;;;;;;;;4801810;29;20027;-68
2021/04/12 19:05:13;;;;;;;31.75;13.15;;;;;;;;;;4791194;29;20415;-69
2021/04/12 19:07:50;;;;;;;34.03;11.85;;;;;;;;;;4801911;29;20023;-67
2021/04/12 19:10:36;;;;;;;33.03;12.75;;;;;;;;;;4798944;29;20034;-70
2021/04/12 19:13:18;;;;;;;25.52;11.20;;;;;;;;;;4800956;29;20449;-69
2021/04/12 19:15:44;;;;;;;27.17;11.65;;;;;;;;;;4801004;29;20069;-69
2021/04/12 19:18:22;;;;;;;29.20;10.98;;;;;;;;;;4800615;29;20039;-66
2021/04/12 19:21:02;;;;;;;21.52;9.73;;;;;;;;;;4801010;29;20042;-68
2021/04/12 19:23:28;;;;;;;27.40;10.25;;;;;;;;;;4800579;29;20041;-66
2021/04/12 19:26:16;;;;;;;23.65;9.70;;;;;;;;;;4800892;29;20038;-68
2021/04/12 19:28:52;;;;;;;27.08;10.35;;;;;;;;;;4799172;29;20031;-66
2021/04/12 19:31:21;;;;;;;28.55;10.80;;;;;;;;;;4800716;29;20030;-69
2021/04/12 19:34:06;;;;;;;26.05;10.90;;;;;;;;;;4800651;29;20441;-67
2021/04/12 19:36:35;;;;;;;25.23;10.70;;;;;;;;;;4800719;29;20521;-68
2021/04/12 19:39:20;;;;;;;27.02;11.05;;;;;;;;;;4800346;29;20110;-64
2021/04/12 19:42:05;;;;;;;24.65;10.57;;;;;;;;;;4800539;29;20038;-69
2021/04/12 19:44:48;;;;;;;22.60;10.00;;;;;;;;;;4800065;29;20650;-67
2021/04/12 19:47:29;;;;;;;20.05;8.65;;;;;;;;;;4802329;29;20041;-65
2021/04/12 19:50:00;;;;;;;24.50;9.05;;;;;;;;;;4803211;29;20030;-69
2021/04/12 19:52:32;;;;;;;21.35;9.23;;;;;;;;;;4804389;29;20084;-68
2021/04/12 19:55:07;;;;;;;20.40;9.15;;;;;;;;;;4794014;29;20434;-66
2021/04/12 19:57:45;;;;;;;22.40;10.15;;;;;;;;;;4802238;29;20531;-66
2021/04/12 20:00:14;;;;;;;18.55;10.50;;;;;;;;;;4803886;29;20057;-67
2021/04/12 20:02:40;;;;;;;25.15;10.55;;;;;;;;;;4802052;29;20111;-63
2021/04/12 20:05:16;;;;;;;26.70;10.15;;;;;;;;;;4801699;29;20050;-68
2021/04/12 20:07:46;;;;;;;23.27;10.05;;;;;;;;;;4801356;29;20019;-69
2021/04/12 20:10:35;;;;;;;24.88;10.77;;;;;;;;;;4801457;29;20027;-68
2021/04/12 20:13:16;;;;;;;24.45;9.77;;;;;;;;;;4728543;30;20048;-68
2021/04/12 20:15:45;;;;;;;28.27;11.05;;;;;;;;;;4728733;30;20096;-69
2021/04/12 20:18:30;;;;;;;23.80;10.25;;;;;;;;;;4740357;30;20164;-69
2021/04/12 20:21:02;;;;;;;25.73;11.65;;;;;;;;;;4745192;30;20048;-69
2021/04/12 20:23:51;;;;;;;26.08;10.85;;;;;;;;;;4744452;30;20059;-68
2021/04/12 20:26:35;;;;;;;24.02;10.57;;;;;;;;;;4728505;30;20052;-67
2021/04/12 20:29:07;;;;;;;30.27;11.55;;;;;;;;;;4729397;30;20071;-70
2021/04/12 20:31:42;;;;;;;24.17;11.48;;;;;;;;;;4730269;30;20109;-69
2021/04/12 20:34:08;;;;;;;27.08;10.90;;;;;;;;;;4728431;30;20138;-71
2021/04/12 20:36:37;;;;;;;22.88;10.88;;;;;;;;;;4730534;30;20401;-70
2021/04/12 20:39:11;;;;;;;25.52;10.88;;;;;;;;;;4730462;30;20036;-70
2021/04/12 20:41:55;;;;;;;32.00;12.30;;;;;;;;;;4731454;30;20032;-65
2021/04/12 20:44:33;;;;;;;30.48;13.18;;;;;;;;;;4730081;30;20060;-65
2021/04/12 20:47:15;;;;;;;35.22;13.35;;;;;;;;;;4729513;30;20112;-65
2021/04/12 20:49:47;;;;;;;24.50;11.05;;;;;;;;;;4740871;30;20113;-69